sensor_id;sensor_type;location;lat;lon;timestamp;P1;durP1;ratioP1;P2;durP2;ratioP2
62543;SDS011;48597;49.030;1.822;2022-09-27T00:01:08;2.47;;;1.23;;
62543;SDS011;48597;49.030;1.822;2022-09-27T00:03:36;1.20;;;1.10;;
62543;SDS011;48597;49.030;1.822;2022-09-27T00:06:04;1.20;;;1.10;;
62543;SDS011;48597;49.030;1.822;2022-09-27T00:08:38;1.88;;;1.20;;
62543;SDS011;48597;49.030;1.822;2022-09-27T00:11:05;1.75;;;1.13;;
62543;SDS011;48597;49.030;1.822;2022-09-27T00:13:41;2.17;;;1.10;;
62543;SDS011;48597;49.030;1.822;2022-09-27T00:16:08;2.05;;;1.30;;
62543;SDS011;48597;49.030;1.822;2022-09-27T00:18:34;1.40;;;1.10;;
62543;SDS011;48597;49.030;1.822;2022-09-27T00:21:03;1.15;;;1.00;;
62543;SDS011;48597;49.030;1.822;2022-09-27T00:23:31;1.48;;;1.08;;
62543;SDS011;48597;49.030;1.822;2022-09-27T00:25:57;2.13;;;1.05;;
62543;SDS011;48597;49.030;1.822;2022-09-27T00:28:23;1.20;;;0.90;;
62543;SDS011;48597;49.030;1.822;2022-09-27T00:30:49;1.13;;;0.90;;
62543;SDS011;48597;49.030;1.822;2022-09-27T00:33:15;1.80;;;1.42;;
62543;SDS011;48597;49.030;1.822;2022-09-27T00:35:40;2.00;;;1.23;;
62543;SDS011;48597;49.030;1.822;2022-09-27T00:38:06;1.48;;;1.08;;
62543;SDS011;48597;49.030;1.822;2022-09-27T00:40:31;2.05;;;1.20;;
62543;SDS011;48597;49.030;1.822;2022-09-27T00:42:57;1.63;;;1.00;;
62543;SDS011;48597;49.030;1.822;2022-09-27T00:45:22;1.02;;;0.90;;
62543;SDS011;48597;49.030;1.822;2022-09-27T00:47:55;1.35;;;1.08;;
62543;SDS011;48597;49.030;1.822;2022-09-27T00:50:27;1.48;;;1.00;;
62543;SDS011;48597;49.030;1.822;2022-09-27T00:53:09;1.23;;;1.00;;
62543;SDS011;48597;49.030;1.822;2022-09-27T00:55:49;1.90;;;1.17;;
62543;SDS011;48597;49.030;1.822;2022-09-27T00:58:19;2.03;;;1.00;;
62543;SDS011;48597;49.030;1.822;2022-09-27T01:00:50;2.17;;;1.23;;
62543;SDS011;48597;49.030;1.822;2022-09-27T01:04:06;1.08;;;1.00;;
62543;SDS011;48597;49.030;1.822;2022-09-27T01:06:21;1.40;;;1.10;;
62543;SDS011;48597;49.030;1.822;2022-09-27T01:08:47;1.25;;;1.10;;
62543;SDS011;48597;49.030;1.822;2022-09-27T01:25:48;1.58;;;1.10;;
62543;SDS011;48597;49.030;1.822;2022-09-27T01:28:21;1.90;;;1.00;;
62543;SDS011;48597;49.030;1.822;2022-09-27T01:30:55;1.83;;;1.00;;
62543;SDS011;48597;49.030;1.822;2022-09-27T01:37:15;1.00;;;0.90;;
62543;SDS011;48597;49.030;1.822;2022-09-27T01:42:03;1.90;;;0.90;;
62543;SDS011;48597;49.030;1.822;2022-09-27T01:47:15;1.20;;;0.90;;
62543;SDS011;48597;49.030;1.822;2022-09-27T01:49:46;1.00;;;0.93;;
62543;SDS011;48597;49.030;1.822;2022-09-27T01:52:19;1.15;;;0.90;;
62543;SDS011;48597;49.030;1.822;2022-09-27T01:54:52;0.95;;;0.90;;
62543;SDS011;48597;49.030;1.822;2022-09-27T01:57:21;1.08;;;0.90;;
62543;SDS011;48597;49.030;1.822;2022-09-27T01:59:55;2.03;;;0.95;;
62543;SDS011;48597;49.030;1.822;2022-09-27T02:02:25;1.23;;;0.90;;
62543;SDS011;48597;49.030;1.822;2022-09-27T02:04:55;1.55;;;1.00;;
62543;SDS011;48597;49.030;1.822;2022-09-27T02:07:28;1.48;;;0.90;;
62543;SDS011;48597;49.030;1.822;2022-09-27T02:09:58;1.45;;;0.90;;
62543;SDS011;48597;49.030;1.822;2022-09-27T02:12:30;1.40;;;1.00;;
62543;SDS011;48597;49.030;1.822;2022-09-27T02:15:05;1.50;;;0.90;;
62543;SDS011;48597;49.030;1.822;2022-09-27T02:25:53;1.40;;;0.88;;
62543;SDS011;48597;49.030;1.822;2022-09-27T02:31:10;1.63;;;0.90;;
62543;SDS011;48597;49.030;1.822;2022-09-27T02:33:46;1.10;;;0.80;;
62543;SDS011;48597;49.030;1.822;2022-09-27T02:36:15;0.90;;;0.80;;
62543;SDS011;48597;49.030;1.822;2022-09-27T02:38:41;1.60;;;0.90;;
62543;SDS011;48597;49.030;1.822;2022-09-27T02:41:15;0.80;;;0.80;;
62543;SDS011;48597;49.030;1.822;2022-09-27T02:43:42;0.90;;;0.80;;
62543;SDS011;48597;49.030;1.822;2022-09-27T03:02:37;0.55;;;0.55;;
62543;SDS011;48597;49.030;1.822;2022-09-27T03:05:08;1.15;;;0.80;;
62543;SDS011;48597;49.030;1.822;2022-09-27T03:07:38;0.82;;;0.80;;
62543;SDS011;48597;49.030;1.822;2022-09-27T03:10:04;1.20;;;0.90;;
62543;SDS011;48597;49.030;1.822;2022-09-27T03:12:30;1.52;;;0.80;;
62543;SDS011;48597;49.030;1.822;2022-09-27T03:14:57;0.90;;;0.80;;
62543;SDS011;48597;49.030;1.822;2022-09-27T03:17:24;1.10;;;0.90;;
62543;SDS011;48597;49.030;1.822;2022-09-27T03:19:50;0.75;;;0.60;;
62543;SDS011;48597;49.030;1.822;2022-09-27T03:22:16;1.48;;;0.77;;
62543;SDS011;48597;49.030;1.822;2022-09-27T03:24:41;0.85;;;0.73;;
62543;SDS011;48597;49.030;1.822;2022-09-27T03:27:07;1.20;;;0.68;;
62543;SDS011;48597;49.030;1.822;2022-09-27T03:29:32;1.52;;;0.82;;
62543;SDS011;48597;49.030;1.822;2022-09-27T03:31:57;0.88;;;0.70;;
62543;SDS011;48597;49.030;1.822;2022-09-27T03:34:23;1.02;;;0.80;;
62543;SDS011;48597;49.030;1.822;2022-09-27T03:36:48;0.90;;;0.60;;
62543;SDS011;48597;49.030;1.822;2022-09-27T03:39:14;1.23;;;0.65;;
62543;SDS011;48597;49.030;1.822;2022-09-27T03:41:39;1.30;;;0.80;;
62543;SDS011;48597;49.030;1.822;2022-09-27T03:44:05;0.80;;;0.80;;
62543;SDS011;48597;49.030;1.822;2022-09-27T03:46:31;1.45;;;0.80;;
62543;SDS011;48597;49.030;1.822;2022-09-27T03:48:56;1.30;;;0.90;;
62543;SDS011;48597;49.030;1.822;2022-09-27T03:51:21;1.15;;;0.75;;
62543;SDS011;48597;49.030;1.822;2022-09-27T03:53:47;1.17;;;0.70;;
62543;SDS011;48597;49.030;1.822;2022-09-27T03:56:13;0.95;;;0.73;;
62543;SDS011;48597;49.030;1.822;2022-09-27T03:58:38;0.90;;;0.52;;
62543;SDS011;48597;49.030;1.822;2022-09-27T04:01:03;1.42;;;0.90;;
62543;SDS011;48597;49.030;1.822;2022-09-27T04:03:29;1.40;;;0.82;;
62543;SDS011;48597;49.030;1.822;2022-09-27T04:05:54;1.58;;;0.70;;
62543;SDS011;48597;49.030;1.822;2022-09-27T04:08:20;3.28;;;0.60;;
62543;SDS011;48597;49.030;1.822;2022-09-27T04:10:48;1.48;;;0.68;;
62543;SDS011;48597;49.030;1.822;2022-09-27T04:13:14;0.93;;;0.80;;
62543;SDS011;48597;49.030;1.822;2022-09-27T04:15:39;1.33;;;0.80;;
62543;SDS011;48597;49.030;1.822;2022-09-27T04:18:05;0.95;;;0.70;;
62543;SDS011;48597;49.030;1.822;2022-09-27T04:20:30;1.20;;;0.70;;
62543;SDS011;48597;49.030;1.822;2022-09-27T04:22:56;0.60;;;0.60;;
62543;SDS011;48597;49.030;1.822;2022-09-27T04:25:21;1.40;;;0.80;;
62543;SDS011;48597;49.030;1.822;2022-09-27T04:27:46;0.75;;;0.70;;
62543;SDS011;48597;49.030;1.822;2022-09-27T04:30:13;0.63;;;0.57;;
62543;SDS011;48597;49.030;1.822;2022-09-27T04:32:42;0.93;;;0.65;;
62543;SDS011;48597;49.030;1.822;2022-09-27T04:35:09;0.60;;;0.60;;
62543;SDS011;48597;49.030;1.822;2022-09-27T04:37:54;0.60;;;0.60;;
62543;SDS011;48597;49.030;1.822;2022-09-27T04:40:19;0.60;;;0.60;;
62543;SDS011;48597;49.030;1.822;2022-09-27T04:42:46;1.00;;;0.90;;
62543;SDS011;48597;49.030;1.822;2022-09-27T04:45:15;2.05;;;0.70;;
62543;SDS011;48597;49.030;1.822;2022-09-27T04:47:45;1.05;;;0.70;;
62543;SDS011;48597;49.030;1.822;2022-09-27T04:50:12;0.80;;;0.60;;
62543;SDS011;48597;49.030;1.822;2022-09-27T04:52:38;0.75;;;0.60;;
62543;SDS011;48597;49.030;1.822;2022-09-27T04:55:05;0.68;;;0.60;;
62543;SDS011;48597;49.030;1.822;2022-09-27T04:57:31;1.63;;;0.80;;
62543;SDS011;48597;49.030;1.822;2022-09-27T04:59:57;0.60;;;0.60;;
62543;SDS011;48597;49.030;1.822;2022-09-27T05:02:25;0.73;;;0.60;;
62543;SDS011;48597;49.030;1.822;2022-09-27T05:04:52;2.15;;;0.50;;
62543;SDS011;48597;49.030;1.822;2022-09-27T05:07:20;0.98;;;0.70;;
62543;SDS011;48597;49.030;1.822;2022-09-27T05:09:45;0.68;;;0.60;;
62543;SDS011;48597;49.030;1.822;2022-09-27T05:12:11;0.60;;;0.60;;
62543;SDS011;48597;49.030;1.822;2022-09-27T05:14:38;0.60;;;0.50;;
62543;SDS011;48597;49.030;1.822;2022-09-27T05:17:03;0.77;;;0.55;;
62543;SDS011;48597;49.030;1.822;2022-09-27T05:19:28;1.75;;;0.57;;
62543;SDS011;48597;49.030;1.822;2022-09-27T05:21:54;1.35;;;0.60;;
62543;SDS011;48597;49.030;1.822;2022-09-27T05:24:19;0.80;;;0.68;;
62543;SDS011;48597;49.030;1.822;2022-09-27T05:26:45;0.63;;;0.60;;
62543;SDS011;48597;49.030;1.822;2022-09-27T05:29:11;0.65;;;0.65;;
62543;SDS011;48597;49.030;1.822;2022-09-27T05:31:36;0.68;;;0.60;;
62543;SDS011;48597;49.030;1.822;2022-09-27T05:34:02;0.60;;;0.60;;
62543;SDS011;48597;49.030;1.822;2022-09-27T05:36:27;0.60;;;0.50;;
62543;SDS011;48597;49.030;1.822;2022-09-27T05:38:52;1.65;;;0.60;;
62543;SDS011;48597;49.030;1.822;2022-09-27T05:41:18;1.05;;;0.60;;
62543;SDS011;48597;49.030;1.822;2022-09-27T05:43:44;0.88;;;0.60;;
62543;SDS011;48597;49.030;1.822;2022-09-27T05:46:10;1.33;;;0.50;;
62543;SDS011;48597;49.030;1.822;2022-09-27T05:48:35;1.00;;;0.68;;
62543;SDS011;48597;49.030;1.822;2022-09-27T05:51:01;0.57;;;0.50;;
62543;SDS011;48597;49.030;1.822;2022-09-27T05:53:27;1.60;;;0.70;;
62543;SDS011;48597;49.030;1.822;2022-09-27T05:55:52;1.13;;;0.68;;
62543;SDS011;48597;49.030;1.822;2022-09-27T05:58:18;2.22;;;0.60;;
62543;SDS011;48597;49.030;1.822;2022-09-27T06:00:43;0.88;;;0.60;;
62543;SDS011;48597;49.030;1.822;2022-09-27T06:03:09;0.60;;;0.57;;
62543;SDS011;48597;49.030;1.822;2022-09-27T06:05:37;1.73;;;0.75;;
62543;SDS011;48597;49.030;1.822;2022-09-27T06:08:05;0.80;;;0.50;;
62543;SDS011;48597;49.030;1.822;2022-09-27T06:10:33;2.15;;;0.80;;
62543;SDS011;48597;49.030;1.822;2022-09-27T06:13:05;1.27;;;0.75;;
62543;SDS011;48597;49.030;1.822;2022-09-27T06:15:33;1.38;;;0.60;;
62543;SDS011;48597;49.030;1.822;2022-09-27T06:18:10;1.48;;;0.55;;
62543;SDS011;48597;49.030;1.822;2022-09-27T06:20:38;1.90;;;0.65;;
62543;SDS011;48597;49.030;1.822;2022-09-27T06:23:08;2.65;;;0.70;;
62543;SDS011;48597;49.030;1.822;2022-09-27T06:25:38;0.68;;;0.60;;
62543;SDS011;48597;49.030;1.822;2022-09-27T06:28:04;1.15;;;0.80;;
62543;SDS011;48597;49.030;1.822;2022-09-27T06:30:30;1.30;;;0.60;;
62543;SDS011;48597;49.030;1.822;2022-09-27T06:32:56;1.15;;;0.60;;
62543;SDS011;48597;49.030;1.822;2022-09-27T06:35:22;1.15;;;0.52;;
62543;SDS011;48597;49.030;1.822;2022-09-27T06:37:49;1.98;;;0.68;;
62543;SDS011;48597;49.030;1.822;2022-09-27T06:40:15;1.98;;;0.90;;
62543;SDS011;48597;49.030;1.822;2022-09-27T06:42:40;1.48;;;0.73;;
62543;SDS011;48597;49.030;1.822;2022-09-27T06:45:06;0.70;;;0.45;;
62543;SDS011;48597;49.030;1.822;2022-09-27T06:47:35;1.23;;;0.50;;
62543;SDS011;48597;49.030;1.822;2022-09-27T06:50:01;1.33;;;0.63;;
62543;SDS011;48597;49.030;1.822;2022-09-27T06:52:30;2.95;;;0.70;;
62543;SDS011;48597;49.030;1.822;2022-09-27T06:54:56;2.30;;;0.63;;
62543;SDS011;48597;49.030;1.822;2022-09-27T06:57:21;1.55;;;0.60;;
62543;SDS011;48597;49.030;1.822;2022-09-27T07:00:05;1.58;;;0.75;;
62543;SDS011;48597;49.030;1.822;2022-09-27T07:02:50;2.20;;;0.60;;
62543;SDS011;48597;49.030;1.822;2022-09-27T07:05:15;1.38;;;0.70;;
62543;SDS011;48597;49.030;1.822;2022-09-27T07:07:41;1.65;;;0.68;;
62543;SDS011;48597;49.030;1.822;2022-09-27T07:10:11;1.02;;;0.85;;
62543;SDS011;48597;49.030;1.822;2022-09-27T07:12:36;1.42;;;0.70;;
62543;SDS011;48597;49.030;1.822;2022-09-27T07:15:02;2.05;;;0.50;;
62543;SDS011;48597;49.030;1.822;2022-09-27T07:17:29;1.85;;;0.52;;
62543;SDS011;48597;49.030;1.822;2022-09-27T07:19:54;1.63;;;0.50;;
62543;SDS011;48597;49.030;1.822;2022-09-27T07:22:20;1.83;;;0.80;;
62543;SDS011;48597;49.030;1.822;2022-09-27T07:24:46;0.90;;;0.65;;
62543;SDS011;48597;49.030;1.822;2022-09-27T07:27:12;1.42;;;0.52;;
62543;SDS011;48597;49.030;1.822;2022-09-27T07:29:37;1.60;;;0.52;;
62543;SDS011;48597;49.030;1.822;2022-09-27T07:32:03;0.73;;;0.60;;
62543;SDS011;48597;49.030;1.822;2022-09-27T07:34:29;1.70;;;0.70;;
62543;SDS011;48597;49.030;1.822;2022-09-27T07:36:58;1.73;;;0.52;;
62543;SDS011;48597;49.030;1.822;2022-09-27T07:39:24;0.75;;;0.50;;
62543;SDS011;48597;49.030;1.822;2022-09-27T07:41:50;0.90;;;0.50;;
62543;SDS011;48597;49.030;1.822;2022-09-27T07:44:15;1.30;;;0.57;;
62543;SDS011;48597;49.030;1.822;2022-09-27T07:46:40;0.80;;;0.70;;
62543;SDS011;48597;49.030;1.822;2022-09-27T07:49:06;1.17;;;0.50;;
62543;SDS011;48597;49.030;1.822;2022-09-27T07:51:31;1.45;;;0.80;;
62543;SDS011;48597;49.030;1.822;2022-09-27T07:53:58;1.73;;;0.52;;
62543;SDS011;48597;49.030;1.822;2022-09-27T07:56:25;1.23;;;0.80;;
62543;SDS011;48597;49.030;1.822;2022-09-27T07:58:51;2.42;;;0.70;;
62543;SDS011;48597;49.030;1.822;2022-09-27T08:01:16;2.15;;;0.55;;
62543;SDS011;48597;49.030;1.822;2022-09-27T08:03:42;1.67;;;0.80;;
62543;SDS011;48597;49.030;1.822;2022-09-27T08:06:08;0.93;;;0.70;;
62543;SDS011;48597;49.030;1.822;2022-09-27T08:08:34;2.08;;;0.50;;
62543;SDS011;48597;49.030;1.822;2022-09-27T08:11:00;1.85;;;0.63;;
62543;SDS011;48597;49.030;1.822;2022-09-27T08:13:35;1.40;;;0.68;;
62543;SDS011;48597;49.030;1.822;2022-09-27T08:16:01;0.95;;;0.47;;
62543;SDS011;48597;49.030;1.822;2022-09-27T08:18:27;1.88;;;0.63;;
62543;SDS011;48597;49.030;1.822;2022-09-27T08:20:54;2.47;;;0.60;;
62543;SDS011;48597;49.030;1.822;2022-09-27T08:23:21;2.15;;;0.70;;
62543;SDS011;48597;49.030;1.822;2022-09-27T08:25:50;1.67;;;0.70;;
62543;SDS011;48597;49.030;1.822;2022-09-27T08:28:17;0.60;;;0.60;;
62543;SDS011;48597;49.030;1.822;2022-09-27T08:30:42;0.90;;;0.60;;
62543;SDS011;48597;49.030;1.822;2022-09-27T08:33:08;1.83;;;0.70;;
62543;SDS011;48597;49.030;1.822;2022-09-27T08:35:33;1.05;;;0.50;;
62543;SDS011;48597;49.030;1.822;2022-09-27T08:37:59;1.50;;;0.63;;
62543;SDS011;48597;49.030;1.822;2022-09-27T08:40:45;1.08;;;0.60;;
62543;SDS011;48597;49.030;1.822;2022-09-27T08:46:17;0.68;;;0.60;;
62543;SDS011;48597;49.030;1.822;2022-09-27T08:49:11;1.60;;;0.80;;
62543;SDS011;48597;49.030;1.822;2022-09-27T08:51:43;1.70;;;0.60;;
62543;SDS011;48597;49.030;1.822;2022-09-27T08:56:48;1.63;;;0.88;;
62543;SDS011;48597;49.030;1.822;2022-09-27T08:59:16;1.75;;;0.60;;
62543;SDS011;48597;49.030;1.822;2022-09-27T09:01:47;0.77;;;0.60;;
62543;SDS011;48597;49.030;1.822;2022-09-27T09:04:17;1.58;;;0.60;;
62543;SDS011;48597;49.030;1.822;2022-09-27T09:07:05;1.63;;;0.60;;
62543;SDS011;48597;49.030;1.822;2022-09-27T09:09:41;1.80;;;0.80;;
62543;SDS011;48597;49.030;1.822;2022-09-27T09:26:10;1.20;;;0.60;;
62543;SDS011;48597;49.030;1.822;2022-09-27T09:31:57;0.98;;;0.60;;
62543;SDS011;48597;49.030;1.822;2022-09-27T09:37:01;1.48;;;0.60;;
62543;SDS011;48597;49.030;1.822;2022-09-27T09:39:34;1.80;;;0.57;;
62543;SDS011;48597;49.030;1.822;2022-09-27T09:47:27;1.67;;;0.60;;
62543;SDS011;48597;49.030;1.822;2022-09-27T09:50:00;1.45;;;0.70;;
62543;SDS011;48597;49.030;1.822;2022-09-27T09:52:41;1.17;;;0.70;;
62543;SDS011;48597;49.030;1.822;2022-09-27T09:55:18;0.52;;;0.45;;
62543;SDS011;48597;49.030;1.822;2022-09-27T09:57:51;2.17;;;0.60;;
62543;SDS011;48597;49.030;1.822;2022-09-27T10:00:26;1.13;;;0.63;;
62543;SDS011;48597;49.030;1.822;2022-09-27T10:02:53;1.05;;;0.60;;
62543;SDS011;48597;49.030;1.822;2022-09-27T10:05:22;0.60;;;0.52;;
62543;SDS011;48597;49.030;1.822;2022-09-27T10:07:50;1.90;;;1.00;;
62543;SDS011;48597;49.030;1.822;2022-09-27T10:10:18;3.15;;;0.75;;
62543;SDS011;48597;49.030;1.822;2022-09-27T10:12:44;1.13;;;0.60;;
62543;SDS011;48597;49.030;1.822;2022-09-27T10:15:15;1.70;;;0.80;;
62543;SDS011;48597;49.030;1.822;2022-09-27T10:17:43;0.70;;;0.52;;
62543;SDS011;48597;49.030;1.822;2022-09-27T10:23:14;0.77;;;0.60;;
62543;SDS011;48597;49.030;1.822;2022-09-27T10:31:16;1.35;;;0.70;;
62543;SDS011;48597;49.030;1.822;2022-09-27T10:33:54;1.10;;;0.63;;
62543;SDS011;48597;49.030;1.822;2022-09-27T10:36:25;1.77;;;0.60;;
62543;SDS011;48597;49.030;1.822;2022-09-27T10:38:55;0.68;;;0.60;;
62543;SDS011;48597;49.030;1.822;2022-09-27T10:41:24;2.08;;;0.70;;
62543;SDS011;48597;49.030;1.822;2022-09-27T10:43:55;1.17;;;0.60;;
62543;SDS011;48597;49.030;1.822;2022-09-27T10:46:28;1.52;;;0.60;;
62543;SDS011;48597;49.030;1.822;2022-09-27T10:51:40;1.42;;;0.70;;
62543;SDS011;48597;49.030;1.822;2022-09-27T10:54:17;0.65;;;0.50;;
62543;SDS011;48597;49.030;1.822;2022-09-27T10:56:57;1.03;;;0.60;;
62543;SDS011;48597;49.030;1.822;2022-09-27T10:59:45;1.05;;;0.80;;
62543;SDS011;48597;49.030;1.822;2022-09-27T11:02:24;0.70;;;0.47;;
62543;SDS011;48597;49.030;1.822;2022-09-27T11:07:45;1.15;;;0.65;;
62543;SDS011;48597;49.030;1.822;2022-09-27T11:10:25;0.90;;;0.43;;
62543;SDS011;48597;49.030;1.822;2022-09-27T11:13:35;1.00;;;0.50;;
62543;SDS011;48597;49.030;1.822;2022-09-27T11:15:47;1.10;;;0.60;;
62543;SDS011;48597;49.030;1.822;2022-09-27T11:18:36;1.63;;;0.73;;
62543;SDS011;48597;49.030;1.822;2022-09-27T11:40:21;0.88;;;0.63;;
62543;SDS011;48597;49.030;1.822;2022-09-27T11:45:31;0.55;;;0.50;;
62543;SDS011;48597;49.030;1.822;2022-09-27T12:04:46;0.70;;;0.50;;
62543;SDS011;48597;49.030;1.822;2022-09-27T12:07:41;0.80;;;0.50;;
62543;SDS011;48597;49.030;1.822;2022-09-27T12:10:16;0.68;;;0.50;;
62543;SDS011;48597;49.030;1.822;2022-09-27T12:12:44;0.90;;;0.57;;
62543;SDS011;48597;49.030;1.822;2022-09-27T12:15:18;1.35;;;0.70;;
62543;SDS011;48597;49.030;1.822;2022-09-27T12:17:51;0.98;;;0.60;;
62543;SDS011;48597;49.030;1.822;2022-09-27T12:20:24;0.82;;;0.70;;
62543;SDS011;48597;49.030;1.822;2022-09-27T12:23:00;0.70;;;0.40;;
62543;SDS011;48597;49.030;1.822;2022-09-27T12:25:31;1.73;;;0.57;;
62543;SDS011;48597;49.030;1.822;2022-09-27T12:30:33;0.50;;;0.50;;
62543;SDS011;48597;49.030;1.822;2022-09-27T12:36:04;0.70;;;0.55;;
62543;SDS011;48597;49.030;1.822;2022-09-27T12:41:25;0.70;;;0.50;;
62543;SDS011;48597;49.030;1.822;2022-09-27T12:43:56;0.93;;;0.57;;
62543;SDS011;48597;49.030;1.822;2022-09-27T12:51:46;1.20;;;0.50;;
62543;SDS011;48597;49.030;1.822;2022-09-27T13:00:16;0.85;;;0.77;;
62543;SDS011;48597;49.030;1.822;2022-09-27T13:14:00;0.60;;;0.60;;
62543;SDS011;48597;49.030;1.822;2022-09-27T13:16:28;0.60;;;0.50;;
62543;SDS011;48597;49.030;1.822;2022-09-27T13:18:57;1.00;;;0.50;;
62543;SDS011;48597;49.030;1.822;2022-09-27T13:35:34;0.65;;;0.47;;
62543;SDS011;48597;49.030;1.822;2022-09-27T13:38:00;0.65;;;0.60;;
62543;SDS011;48597;49.030;1.822;2022-09-27T13:43:04;0.57;;;0.45;;
62543;SDS011;48597;49.030;1.822;2022-09-27T13:45:58;0.50;;;0.50;;
62543;SDS011;48597;49.030;1.822;2022-09-27T13:53:55;0.73;;;0.68;;
62543;SDS011;48597;49.030;1.822;2022-09-27T13:59:14;1.27;;;0.65;;
62543;SDS011;48597;49.030;1.822;2022-09-27T14:01:51;0.52;;;0.52;;
62543;SDS011;48597;49.030;1.822;2022-09-27T14:04:29;0.95;;;0.80;;
62543;SDS011;48597;49.030;1.822;2022-09-27T14:07:01;1.30;;;0.70;;
62543;SDS011;48597;49.030;1.822;2022-09-27T14:09:32;0.85;;;0.70;;
62543;SDS011;48597;49.030;1.822;2022-09-27T14:12:03;0.50;;;0.40;;
62543;SDS011;48597;49.030;1.822;2022-09-27T14:14:35;0.55;;;0.52;;
62543;SDS011;48597;49.030;1.822;2022-09-27T14:17:01;1.85;;;0.60;;
62543;SDS011;48597;49.030;1.822;2022-09-27T14:19:36;0.73;;;0.55;;
62543;SDS011;48597;49.030;1.822;2022-09-27T14:22:09;1.25;;;0.60;;
62543;SDS011;48597;49.030;1.822;2022-09-27T14:27:10;0.95;;;0.60;;
62543;SDS011;48597;49.030;1.822;2022-09-27T14:29:48;0.60;;;0.50;;
62543;SDS011;48597;49.030;1.822;2022-09-27T14:32:21;0.50;;;0.50;;
62543;SDS011;48597;49.030;1.822;2022-09-27T14:37:52;0.60;;;0.57;;
62543;SDS011;48597;49.030;1.822;2022-09-27T14:40:19;0.75;;;0.60;;
62543;SDS011;48597;49.030;1.822;2022-09-27T14:42:46;1.17;;;0.70;;
62543;SDS011;48597;49.030;1.822;2022-09-27T14:45:19;0.73;;;0.60;;
62543;SDS011;48597;49.030;1.822;2022-09-27T14:47:49;1.15;;;0.50;;
62543;SDS011;48597;49.030;1.822;2022-09-27T14:50:17;1.20;;;0.63;;
62543;SDS011;48597;49.030;1.822;2022-09-27T14:52:53;0.73;;;0.57;;
62543;SDS011;48597;49.030;1.822;2022-09-27T14:55:23;1.67;;;0.80;;
62543;SDS011;48597;49.030;1.822;2022-09-27T15:00:38;0.68;;;0.50;;
62543;SDS011;48597;49.030;1.822;2022-09-27T15:03:11;1.17;;;0.63;;
62543;SDS011;48597;49.030;1.822;2022-09-27T15:05:44;0.85;;;0.60;;
62543;SDS011;48597;49.030;1.822;2022-09-27T15:08:10;1.05;;;0.65;;
62543;SDS011;48597;49.030;1.822;2022-09-27T15:10:39;1.33;;;0.52;;
62543;SDS011;48597;49.030;1.822;2022-09-27T15:13:04;0.50;;;0.50;;
62543;SDS011;48597;49.030;1.822;2022-09-27T15:15:32;1.50;;;0.90;;
62543;SDS011;48597;49.030;1.822;2022-09-27T15:17:59;1.35;;;0.65;;
62543;SDS011;48597;49.030;1.822;2022-09-27T15:20:32;0.90;;;0.60;;
62543;SDS011;48597;49.030;1.822;2022-09-27T15:23:02;1.15;;;0.65;;
62543;SDS011;48597;49.030;1.822;2022-09-27T15:27:59;0.80;;;0.63;;
62543;SDS011;48597;49.030;1.822;2022-09-27T15:30:32;0.95;;;0.60;;
62543;SDS011;48597;49.030;1.822;2022-09-27T15:32:57;0.90;;;0.82;;
62543;SDS011;48597;49.030;1.822;2022-09-27T15:35:28;1.08;;;0.60;;
62543;SDS011;48597;49.030;1.822;2022-09-27T15:38:20;1.00;;;0.70;;
62543;SDS011;48597;49.030;1.822;2022-09-27T15:43:23;1.20;;;0.60;;
62543;SDS011;48597;49.030;1.822;2022-09-27T15:46:00;0.82;;;0.60;;
62543;SDS011;48597;49.030;1.822;2022-09-27T15:48:28;0.57;;;0.57;;
62543;SDS011;48597;49.030;1.822;2022-09-27T15:50:56;1.02;;;0.70;;
62543;SDS011;48597;49.030;1.822;2022-09-27T15:55:59;1.20;;;0.73;;
62543;SDS011;48597;49.030;1.822;2022-09-27T15:58:30;1.13;;;0.70;;
62543;SDS011;48597;49.030;1.822;2022-09-27T16:00:58;0.75;;;0.70;;
62543;SDS011;48597;49.030;1.822;2022-09-27T16:03:29;1.38;;;1.08;;
62543;SDS011;48597;49.030;1.822;2022-09-27T16:05:55;0.70;;;0.70;;
62543;SDS011;48597;49.030;1.822;2022-09-27T16:08:22;0.82;;;0.65;;
62543;SDS011;48597;49.030;1.822;2022-09-27T16:10:51;0.98;;;0.60;;
62543;SDS011;48597;49.030;1.822;2022-09-27T16:13:19;0.95;;;0.70;;
62543;SDS011;48597;49.030;1.822;2022-09-27T16:15:45;1.13;;;0.60;;
62543;SDS011;48597;49.030;1.822;2022-09-27T16:18:11;0.95;;;0.70;;
62543;SDS011;48597;49.030;1.822;2022-09-27T16:20:37;1.05;;;0.70;;
62543;SDS011;48597;49.030;1.822;2022-09-27T16:23:03;0.77;;;0.60;;
62543;SDS011;48597;49.030;1.822;2022-09-27T16:25:29;1.02;;;0.70;;
62543;SDS011;48597;49.030;1.822;2022-09-27T16:28:00;1.58;;;0.80;;
62543;SDS011;48597;49.030;1.822;2022-09-27T16:30:28;1.25;;;0.80;;
62543;SDS011;48597;49.030;1.822;2022-09-27T16:32:54;0.57;;;0.57;;
62543;SDS011;48597;49.030;1.822;2022-09-27T16:35:20;1.10;;;0.65;;
62543;SDS011;48597;49.030;1.822;2022-09-27T16:37:46;1.15;;;0.80;;
62543;SDS011;48597;49.030;1.822;2022-09-27T16:40:12;1.38;;;0.80;;
62543;SDS011;48597;49.030;1.822;2022-09-27T16:42:39;0.60;;;0.60;;
62543;SDS011;48597;49.030;1.822;2022-09-27T16:45:06;1.65;;;0.80;;
62543;SDS011;48597;49.030;1.822;2022-09-27T16:47:32;1.42;;;0.70;;
62543;SDS011;48597;49.030;1.822;2022-09-27T16:49:58;0.90;;;0.70;;
62543;SDS011;48597;49.030;1.822;2022-09-27T16:52:42;1.50;;;0.80;;
62543;SDS011;48597;49.030;1.822;2022-09-27T16:55:11;2.70;;;0.77;;
62543;SDS011;48597;49.030;1.822;2022-09-27T16:57:44;1.02;;;0.60;;
62543;SDS011;48597;49.030;1.822;2022-09-27T17:00:10;1.13;;;0.73;;
62543;SDS011;48597;49.030;1.822;2022-09-27T17:02:36;1.23;;;0.85;;
62543;SDS011;48597;49.030;1.822;2022-09-27T17:05:02;1.13;;;0.60;;
62543;SDS011;48597;49.030;1.822;2022-09-27T17:07:27;1.45;;;0.75;;
62543;SDS011;48597;49.030;1.822;2022-09-27T17:09:53;1.60;;;0.80;;
62543;SDS011;48597;49.030;1.822;2022-09-27T17:12:18;1.38;;;0.80;;
62543;SDS011;48597;49.030;1.822;2022-09-27T17:14:43;1.10;;;0.90;;
62543;SDS011;48597;49.030;1.822;2022-09-27T17:17:09;1.52;;;0.60;;
62543;SDS011;48597;49.030;1.822;2022-09-27T17:19:34;1.10;;;0.85;;
62543;SDS011;48597;49.030;1.822;2022-09-27T17:22:01;0.75;;;0.70;;
62543;SDS011;48597;49.030;1.822;2022-09-27T17:24:27;1.13;;;0.77;;
62543;SDS011;48597;49.030;1.822;2022-09-27T17:26:52;2.15;;;0.90;;
62543;SDS011;48597;49.030;1.822;2022-09-27T17:29:19;1.10;;;0.80;;
62543;SDS011;48597;49.030;1.822;2022-09-27T17:31:44;0.80;;;0.70;;
62543;SDS011;48597;49.030;1.822;2022-09-27T17:34:10;2.00;;;0.90;;
62543;SDS011;48597;49.030;1.822;2022-09-27T17:36:38;1.02;;;0.93;;
62543;SDS011;48597;49.030;1.822;2022-09-27T17:39:06;2.00;;;0.80;;
62543;SDS011;48597;49.030;1.822;2022-09-27T17:41:34;1.42;;;0.90;;
62543;SDS011;48597;49.030;1.822;2022-09-27T17:44:01;1.02;;;0.77;;
62543;SDS011;48597;49.030;1.822;2022-09-27T17:46:28;0.98;;;0.73;;
62543;SDS011;48597;49.030;1.822;2022-09-27T17:48:55;1.88;;;0.88;;
62543;SDS011;48597;49.030;1.822;2022-09-27T17:51:40;1.17;;;0.60;;
62543;SDS011;48597;49.030;1.822;2022-09-27T17:54:07;1.73;;;0.90;;
62543;SDS011;48597;49.030;1.822;2022-09-27T17:56:35;1.27;;;0.80;;
62543;SDS011;48597;49.030;1.822;2022-09-27T17:59:02;1.13;;;0.68;;
62543;SDS011;48597;49.030;1.822;2022-09-27T18:01:28;1.10;;;0.80;;
62543;SDS011;48597;49.030;1.822;2022-09-27T18:03:54;1.38;;;0.68;;
62543;SDS011;48597;49.030;1.822;2022-09-27T18:06:21;0.77;;;0.70;;
62543;SDS011;48597;49.030;1.822;2022-09-27T18:08:47;0.90;;;0.68;;
62543;SDS011;48597;49.030;1.822;2022-09-27T18:11:14;1.38;;;0.85;;
62543;SDS011;48597;49.030;1.822;2022-09-27T18:13:41;1.23;;;0.90;;
62543;SDS011;48597;49.030;1.822;2022-09-27T18:16:08;2.00;;;0.70;;
62543;SDS011;48597;49.030;1.822;2022-09-27T18:18:35;1.10;;;0.80;;
62543;SDS011;48597;49.030;1.822;2022-09-27T18:21:05;1.52;;;0.70;;
62543;SDS011;48597;49.030;1.822;2022-09-27T18:23:35;1.42;;;0.80;;
62543;SDS011;48597;49.030;1.822;2022-09-27T18:26:00;1.17;;;0.77;;